Monday, October 16, 2017, 6:13 PM EDT
Back to Local

KPYM, Plymouth Municipal Airport

Location: Carver, MA, United States Lat: 41.9
Local Time: 6:13 PM EDT (22:13 GMT) Lon: -70.733
Time Zone: US/Eastern Elev: 147 ft

Show me the last for .
Show Decoded

2017-10-16 17:52 METAR KPYM 162152Z AUTO 35007KT 10SM SCT050 11/05 A2999 RMK AO2 SLP154 T01110050
                 $ =
2017-10-16 16:52 METAR KPYM 162052Z AUTO 34006KT 10SM SCT050 12/04 A2999 RMK AO2 SLP155 T01220044
                 53023 $ =
2017-10-16 15:52 METAR KPYM 161952Z AUTO 34011KT 10SM BKN042 13/04 A2996 RMK AO2 PRESRR SLP145
                 T01330044 $ =
2017-10-16 14:52 METAR KPYM 161852Z AUTO 33012KT 10SM SCT034 OVC042 14/06 A2994 RMK AO2 SLP137
                 T01440061 $ =
2017-10-16 13:52 METAR KPYM 161752Z AUTO 34010KT 10SM OVC034 16/07 A2992 RMK AO2 SLP132 60000
                 T01560072 10178 20156 53004 =
2017-10-16 12:52 METAR KPYM 161652Z AUTO 34007KT 10SM BKN035 17/08 A2991 RMK AO2 SLP129 T01670083
                 $ =
2017-10-16 11:52 METAR KPYM 161552Z AUTO 30009KT 10SM CLR 17/09 A2991 RMK AO2 SLP126 T01720089 $
                 =
2017-10-16 10:52 METAR KPYM 161452Z AUTO 29007KT 260V320 10SM CLR 17/09 A2991 RMK AO2 SLP128
                 60000 T01670089 51028 =
2017-10-16 09:52 METAR KPYM 161352Z AUTO 29008KT 10SM CLR 16/09 A2989 RMK AO2 RAB1259E09 SLP121
                 P0000 T01610089 =
2017-10-16 08:52 METAR KPYM 161252Z AUTO 29006G14KT 10SM BKN120 16/09 A2985 RMK AO2 SLP108
                 T01610094 =
2017-10-16 07:52 METAR KPYM 161152Z AUTO 29009G15KT 10SM FEW025 SCT100 OVC120 17/13 A2983 RMK AO2
                 RAB1056E42 SLP100 P0000 60000 T01670133 10206 20167 51024 =
2017-10-16 06:52 METAR KPYM 161052Z AUTO 27005KT 10SM FEW055 OVC080 18/13 A2980 RMK AO2 SLP090
                 T01780133 =
2017-10-16 06:23 METAR KPYM 161023Z AUTO 28007KT 10SM FEW027 BKN070 OVC090 18/13 A2978 RMK AO2
                 T01780133 =
2017-10-16 05:52 METAR KPYM 160952Z AUTO 26009KT 10SM OVC026 18/13 A2979 RMK AO2 SLP089 T01830128
                 =
2017-10-16 04:52 METAR KPYM 160852Z AUTO 30007KT 10SM SCT011 OVC018 20/16 A2975 RMK AO2 SLP075
                 T02000156 55002 =
2017-10-16 04:33 METAR KPYM 160833Z AUTO 24007KT 10SM SCT009 OVC018 21/18 A2975 RMK AO2 T02060178
                 =
2017-10-16 03:59 METAR KPYM 160759Z AUTO 21010KT 10SM BKN011 BKN025 OVC080 21/18 A2974 RMK AO2
                 CIG 009V015 T02060178 =
2017-10-16 03:52 METAR KPYM 160752Z AUTO 22010KT 10SM SCT011 BKN024 OVC080 21/18 A2974 RMK AO2
                 SLP070 T02060178 =
2017-10-16 03:06 METAR KPYM 160706Z AUTO 21010G18KT 10SM SCT013 BKN025 OVC029 21/17 A2975 RMK AO2
                 T02060172 =
2017-10-16 02:52 METAR KPYM 160652Z AUTO 22010KT 10SM BKN013 BKN019 OVC075 21/17 A2975 RMK AO2
                 SLP074 T02060172 =
2017-10-16 01:52 METAR KPYM 160552Z AUTO 23014G23KT 10SM OVC014 21/17 A2976 RMK AO2 PK WND
                 21027/0505 SLP077 T02060167 10206 20194 56008 =
2017-10-16 00:52 METAR KPYM 160452Z AUTO 22017G27KT 10SM OVC013 20/17 A2977 RMK AO2 PK WND
                 21030/0433 SLP079 T02000167 402280156 =
2017-10-15 23:52 METAR KPYM 160352Z AUTO 22015G25KT 10SM OVC012 20/17 A2977 RMK AO2 PK WND
                 21027/0310 SLP079 T02000167 =
2017-10-15 22:52 METAR KPYM 160252Z AUTO 23022G34KT 10SM OVC010 19/17 A2978 RMK AO2 PK WND
                 23034/0252 CIG 009V014 SLP085 T01940167 55007 =
2017-10-15 21:52 METAR KPYM 160152Z AUTO 22019G29KT 10SM OVC011 20/17 A2978 RMK AO2 PK WND
                 21035/0132 SLP083 T02000167 =
2017-10-15 20:52 METAR KPYM 160052Z AUTO 21021G25KT 10SM OVC012 20/17 A2979 RMK AO2 SLP088
                 T02000167 =
2017-10-15 19:52 METAR KPYM 152352Z AUTO 21015G24KT 10SM OVC011 20/17 A2980 RMK AO2 CIG 009V015
                 SLP092 60000 T02000167 10228 20200 56014 =
2017-10-15 18:52 METAR KPYM 152252Z AUTO 21012G22KT 10SM OVC012 20/17 A2981 RMK AO2 SLP094
                 T02000167 =

Support USWX by starting your Amazon purchase here.